Gustav Ibrahimovic

Jefe de ojeadores - Djurgarden
10 Sep 2028
Domingo
Continuar

Personalidad

Adaptabilidad (15) Ambición (8) Controversia (18) Lealtad (12) Presión (5) Profesionalismo (8) Deportividad (12) Temperamento (2)

Perfil

Estilo de dirección Democrático
Licencia Continental B
Determinación 4
Gestión de personas 13
Motivación 7
Disciplina 9
Satisfacción laboral
100%
Fatiga
0%
Cargo Jefe de ojeadores
Salario 68.0K p/s
Contrato 14.03.2030

Rendimiento

Comportamiento Bueno
Efectividad del entrenamiento
51%
Desarrollo de jugadores
55%
Prevención de lesiones
60%
Implementación táctica
60%

Eventos recientes

Recomendó un objetivo de fichaje ahora
Recomendó un objetivo de fichaje ahora
Recomendó un objetivo de fichaje ahora
Recomendó un objetivo de fichaje ahora
Recomendó un objetivo de fichaje ahora
Recomendó un objetivo de fichaje ahora
Asistió a una reunión de captación ahora
Evaluó a un jugador ahora

Actualmente siguiendo

245
Jugador Club Estado Habilidad Confianza Observado Última observación Último voto
Joel Ezra Enyimba Activo 108 / 100 40% 6 07.09.2028 -
Ayden Heaven Portsmouth Activo 158 / 151 40% 2 07.09.2028 -
Francisco Machis Llaneros Activo 92 / 91 40% 1 07.09.2028 -
Melvin Vučenović Persson Atvidaberg Activo 80 / 86 40% 5 06.09.2028 -
Aytor Herrera Mineros de Guayana Activo 86 / 101 40% 1 06.09.2028 -
Tiago Gordillo San Miguel Activo 99 / 88 40% 1 06.09.2028 -
Máximo Munarriz San Telmo Activo 100 / 110 40% 1 05.09.2028 -
Lautaro Dufur Juventud Activo 105 / 114 40% 1 05.09.2028 -
Honest Ahanor Atalanta Activo 139 / 148 40% 4 14.08.2028 -
Kamaldeen Atiemo Wa All Stars Activo 102 / 117 40% 1 14.08.2028 -
Lucas Camejo River Plate Activo 86 / 91 40% 1 14.08.2028 -
Tobías Torrielli IFK Norrkoping Activo 93 / 98 69% 1 07.08.2028 Aprobar
Sindre Walle Egeli Udinese Activo 137 / 140 40% 3 09.05.2028 -
Gabriel Mec Feirense Activo 137 / 132 40% 2 09.05.2028 -
Luca Williams-Barnett Walsall Activo 119 / 126 40% 1 09.05.2028 -
Omar Khedr Gillingham Activo 104 / 120 40% 1 05.05.2028 -
Henrique Carmo Sochi Activo 128 / 135 40% 1 05.05.2028 -
Kerim Alajbegović Modena Activo 129 / 132 40% 1 05.05.2028 -
Ibrahim Fullah Charlton Athletic Activo 114 / 125 40% 3 04.05.2028 -
Ryan Kavuma-McQueen Accrington Stanley Activo 117 / 124 40% 1 04.05.2028 -
Giovanni Leoni Lincoln City Activo 134 / 147 40% 2 27.03.2028 -
Daniel Banjaqui Benfica Activo 113 / 136 40% 3 27.03.2028 -
Ludvig Arvidsson Halmstad Activo 92 / 108 69% 1 06.03.2028 Aprobar
Josh Acheampong Everton Activo 145 / 154 40% 1 06.03.2028 -
Christos Mouzakitis Hull City Activo 145 / 136 40% 1 06.03.2028 -
Jon Esenga IF Elfsborg Activo 86 / 106 40% 2 16.02.2028 -
Matias Siltanen Malmo FF Activo 132 / 138 40% 1 16.02.2028 -
Trey Nyoni Rotherham United Activo 129 / 152 40% 1 16.02.2028 -
Bitello Universidad de Chile Activo 135 / 135 68% 1 01.02.2028 Aprobar
Martin Cedidla Club Brugge Activo 131 / 132 66% 1 01.02.2028 Aprobar
Sampson Dweh Mallorca Activo 133 / 134 66% 1 01.02.2028 Aprobar
Archie Gray Southampton Activo 155 / 155 40% 3 15.01.2028 -
Lucas Bergvall Tottenham Activo 153 / 157 40% 3 14.01.2028 -
Zane Albarus Shrewsbury Town Activo 91 / 113 40% 3 11.01.2028 -
Martim Cunha Porto Activo 115 / 107 40% 1 10.01.2028 -
Tyler Fletcher Rotherham United Activo 119 / 126 40% 1 09.01.2028 -
Victor Hernandez Santa Fe Negociando 127 / 120 40% 10 07.01.2028 -
Colin Guske Orlando City Activo 102 / 95 40% 2 07.01.2028 -
Noel Sernelius IFK Norrkoping Activo 96 / 119 40% 1 07.01.2028 -
Esquerdinha Notts County Activo 115 / 132 40% 2 06.01.2028 -
Björn Hedlöf Helsingborg Activo 88 / 110 40% 2 06.01.2028 -
Ruben Ramos LA Galaxy Activo 110 / 110 40% 8 28.12.2027 -
Valentino Acuña Newell's Old Boys Activo 119 / 114 40% 4 28.12.2027 -
Jayden Danns Bradford City Activo 129 / 137 40% 1 26.12.2027 -
David Eke Enyimba Activo 94 / 93 40% 1 26.12.2027 -
Emmanuel Ndubueze Shooting Stars Activo 80 / 85 40% 3 24.12.2027 -
Matías Arias Vélez Activo 121 / 122 40% 3 23.12.2027 -
Albert Aleksanjan IFK Norrkoping Activo 102 / 98 40% 7 21.12.2027 -
Mateo Silvetti Seattle Sounders Activo 122 / 119 40% 4 19.12.2027 -
Luca Meirelles Kudrivka Activo 118 / 125 40% 2 19.12.2027 -
Idris Ajiya Nasarawa United Activo 84 / 84 40% 5 17.12.2027 -
Jeremías Merlo Gimnasia La Plata Activo 122 / 128 40% 3 17.12.2027 -
Pedro Baltika Activo 139 / 144 40% 1 17.12.2027 -
Rafael Moreno Atletico Venezuela Activo 100 / 112 40% 6 16.12.2027 -
Giovanni Baroni Talleres Activo 118 / 112 40% 3 16.12.2027 -
Christ Wawa Gefle Activo 110 / 98 40% 3 16.12.2027 -
Alex Verón Vélez Activo 114 / 134 40% 3 14.12.2027 -
Ryan McAidoo Oldham Athletic Activo 121 / 135 40% 1 13.12.2027 -
Rio Ngumoha Plymouth Argyle Activo 130 / 150 40% 1 13.12.2027 -
Luka Andrade Montevideo City Torque Activo 90 / 116 40% 10 11.12.2027 -
Alex Amaefula Kun Khalifat Activo 77 / 76 40% 3 11.12.2027 -
Nupe Godstime Bayelsa United Activo 77 / 100 40% 6 10.12.2027 -
Dylan Cabral Arsenal Activo 90 / 98 40% 8 09.12.2027 -
Abdulrahman Hamisu Niger Tornadoes Activo 97 / 85 40% 4 04.12.2027 -
Chimobi Igwilo Rangers International Activo 88 / 92 40% 7 02.12.2027 -
Francisco Triver River Plate Activo 85 / 94 40% 3 01.12.2027 -
Mateo Peralta Danubio Activo 108 / 108 40% 3 29.11.2027 -
Keyano Marrah Hammarby Activo 95 / 102 40% 2 24.11.2027 -
Mustapha Umar Kano Pillars Activo 91 / 92 40% 6 22.11.2027 -
Imran Musa Atvidaberg Activo 93 / 92 40% 1 20.11.2027 -
Maren Kefas Plateau United Activo 82 / 103 40% 4 18.11.2027 -
Joseph Abah Remo Stars Activo 80 / 89 40% 1 18.11.2027 -
Nicolás Barros Schelotto Gimnasia La Plata Activo 130 / 137 40% 5 16.11.2027 -
Adrian Skogmar Malmo FF Activo 108 / 117 40% 7 13.11.2027 -
Ben Gannon Doak Charlton Athletic Activo 139 / 141 40% 2 30.10.2027 -
Tiago Pucciarelli IF Elfsborg Activo 97 / 111 40% 2 19.10.2027 -
Abubakar Garba Nasarawa United Activo 97 / 98 40% 6 17.10.2027 -
Juan Rodríguez Cerro Largo Activo 85 / 103 40% 2 15.10.2027 -
Lucas Duré Montevideo City Torque Activo 95 / 116 40% 1 13.10.2027 -
Léo Llaneros Activo 83 / 92 40% 1 13.10.2027 -
Hassan Beja AFC Leopards Activo 99 / 92 40% 3 10.10.2027 -
Wisdom Udom Bendel Insurance Activo 78 / 94 40% 4 07.10.2027 -
Didier Dawson Envigado Activo 97 / 111 40% 1 01.10.2027 -
Abdoulaye Allamine Stars Jeunes Talents Activo 69 / 82 40% 1 16.08.2027 -
Pedro de la Vega Columbus Crew Activo 133 / 134 66% 1 16.07.2027 Aprobar
Leo Castledine Middlesbrough Activo 134 / 131 40% 4 15.07.2027 -
Caleb Yirenkyi Coventry City Activo 134 / 135 40% 9 15.07.2027 -
Calum Agius Crewe Alexandra Activo 96 / 91 40% 3 15.07.2027 -
Daniel Awuni Aduana Stars Activo 96 / 84 40% 6 13.07.2027 -
Riley Owen Stevenage Activo 113 / 106 40% 3 08.07.2027 -
Charlie Gray Fleetwood Town Activo 91 / 104 40% 6 08.07.2027 -
Ishmael Addo Heart of Lions Activo 90 / 95 40% 2 08.07.2027 -
Othmane Maamma Watford Activo 137 / 132 40% 4 07.07.2027 -
Elijas Gunnergård Ortan Ahrobiznes Activo 82 / 94 40% 5 06.07.2027 -
Mohamadou Kanté Crawley Town Activo 118 / 125 40% 2 06.07.2027 -
João Abreu Porto Activo 102 / 113 40% 3 05.07.2027 -
Jan Bürger Northampton Town Activo 114 / 130 40% 4 01.07.2027 -
Nana Nuhu WAFA Activo 95 / 86 40% 4 01.07.2027 -
Stevan Manuel Benfica Activo 92 / 103 40% 1 28.06.2027 -
Bazoumana Touré Newcastle United Activo 149 / 155 40% 3 23.06.2027 -
Ethan Williams Peterborough United Activo 123 / 117 40% 1 23.06.2027 -
Araphat Mohammed Ashanti Gold Activo 112 / 102 40% 3 11.06.2027 -
Luke Baartman Ajax Cape Town Activo 101 / 98 40% 1 11.06.2027 -
Lander Astiazarán Real Sociedad Activo 104 / 118 40% 3 10.06.2027 -
Gladson Adjei WAFA Activo 72 / 80 40% 1 09.06.2027 -
Romelle Donovan Brentford Activo 135 / 137 40% 6 08.06.2027 -
Rhys Walters Port Vale Activo 96 / 116 40% 1 07.06.2027 -
Tiago Freitas Benfica Activo 101 / 124 40% 1 03.06.2027 -
Gabriele Bertolini Vicenza Activo 101 / 110 40% 1 03.06.2027 -
Asanele Bonani Chippa United Activo 99 / 84 40% 1 03.06.2027 -
Víctor Guzmán Sporting CP Activo 97 / 110 40% 1 01.06.2027 -
Edwin Asamoah Berekum Chelsea Activo 75 / 97 40% 2 30.05.2027 -
Williams Wonah AS Police Activo 78 / 70 40% 1 26.05.2027 -
Kirill Glebov CSKA Moscow Activo 131 / 121 40% 1 24.05.2027 -
Nestory Irankunda Watford Activo 127 / 133 40% 1 13.05.2027 -
André Miranda Porto Activo 91 / 100 40% 1 13.05.2027 -
Alphadjo Cissé Lecce Activo 129 / 137 40% 1 12.05.2027 -
Oscar Schwartau Norwich City Activo 111 / 128 40% 1 06.05.2027 -
Hamse Shagaxle Angusht Activo 77 / 91 40% 1 04.05.2027 -
Jenson Jones Walsall Activo 91 / 104 40% 2 23.04.2027 -
Bernardo Lima Porto Activo 86 / 96 40% 1 21.04.2027 -
Gonçalo Oliveira Benfica Activo 112 / 105 40% 2 20.04.2027 -
Chari Giwa US Bougouni Activo 67 / 70 40% 1 16.04.2027 -
Samuele di Benedetto Twente Activo 107 / 110 40% 1 16.04.2027 -
Rivaldo Mkhize Black Aces Activo 89 / 75 40% 1 15.04.2027 -
Leandro Martins Benfica Activo 98 / 85 40% 1 15.04.2027 -
Tommaso Cecotti Carpi Activo 83 / 85 40% 1 12.04.2027 -
Konta Ismaily Activo 92 / 91 40% 1 09.04.2027 -
Ahmed Zaki Masr El Makasa Activo 87 / 95 40% 1 09.04.2027 -
Afriyie Sulemana WAFA Activo 84 / 99 40% 1 05.04.2027 -
Kazunari Kita Real Sociedad Activo 99 / 108 40% 1 05.04.2027 -
David Ozoh Derby County Activo 119 / 120 40% 1 15.03.2027 -
Lwanda Mbanjwa Platinum Stars Activo 99 / 100 40% 1 22.02.2027 -
Mikel Gogorza Brondby Activo 118 / 118 40% 1 16.02.2027 -
Rocco Vata Watford Activo 113 / 111 40% 4 04.02.2027 -
Fletcher Holman Swindon Town Activo 77 / 100 40% 1 04.02.2027 -
Ethan Pye Stockport County Activo 123 / 125 40% 1 01.02.2027 -
Álex Centelles Levski Activo 129 / 132 40% 1 01.02.2027 -
Isaiah Jones Luton Town Activo 116 / 134 40% 1 31.01.2027 -
Cian Ashford Cardiff City Activo 111 / 127 40% 1 31.01.2027 -
Callum O'Hare Sheffield United Activo 130 / 140 40% 4 30.01.2027 -
Sam Greenwood Bristol City Activo 131 / 121 40% 5 30.01.2027 -
Bradley Zwane SuperSport United Activo 112 / 125 40% 3 29.01.2027 -
Joe Gelhardt Hull City Activo 128 / 126 40% 7 29.01.2027 -
Emmanuel Boateng Hapoel Tel Aviv Activo 128 / 132 40% 4 29.01.2027 -
Anthony Patterson Wrexham Activo 142 / 142 40% 3 28.01.2027 -
Lukas Jensen Millwall Activo 114 / 130 40% 1 28.01.2027 -
Arthur Beroe Activo 115 / 114 40% 1 28.01.2027 -
Ivan Sergeev Dinamo Moscow Activo 131 / 120 40% 3 27.01.2027 -
Arthur Gomes Dinamo Moscow Activo 125 / 116 40% 1 23.01.2027 -
Ioannis Pittas CSKA Sofia Activo 125 / 123 40% 2 22.01.2027 -
Mohamed-Ali Cho Hull City Activo 139 / 146 40% 1 20.01.2027 -
Richard Ludha MFK Skalica Activo 109 / 106 40% 1 19.01.2027 -
Bongani Zungu Ajax Cape Town Activo 124 / 132 40% 5 16.01.2027 -
Derensili Sanches Fernandes Huddersfield Town Activo 121 / 117 40% 1 15.01.2027 -
Ali Ahmed Norwich City Activo 131 / 134 40% 1 13.01.2027 -
Jack McGlynn Stoke City Activo 119 / 145 40% 1 12.01.2027 -
Ilyas Ansah Hull City Activo 119 / 119 40% 3 09.01.2027 -
Oli McBurnie Hull City Activo 124 / 137 40% 3 08.01.2027 -
Tyrese Campbell Sheffield United Activo 131 / 116 40% 3 08.01.2027 -
Daniel Paraschiv Bnei Sakhnin Activo 129 / 108 40% 1 07.01.2027 -
Marcelo Allende Mamelodi Sundowns Activo 133 / 135 40% 2 02.01.2027 -
Harry Clarke Preston Activo 130 / 140 40% 1 02.01.2027 -
Patson Daka Leicester City Activo 127 / 119 40% 1 01.01.2027 -
Habib Diarra Sunderland Activo 134 / 153 40% 1 31.12.2026 -
Armstrong Oko-Flex Levski Activo 118 / 127 40% 3 29.12.2026 -
Ammar Ramadan DAC Dunajska Streda Activo 119 / 132 40% 1 29.12.2026 -
Cho Gue-Sung FC Midtjylland Activo 122 / 136 40% 1 28.12.2026 -
Elijah Adebayo Luton Town Activo 112 / 127 40% 1 28.12.2026 -
Mustapha Sangaré Levski Activo 123 / 124 40% 2 27.12.2026 -
Zian Flemming Ipswich Town Activo 135 / 123 40% 3 27.12.2026 -
Cameron Archer Southampton Activo 132 / 113 40% 1 24.12.2026 -
Milan van Ewijk Coventry City Activo 128 / 119 40% 1 21.12.2026 -
Reda Khadra Qarabag Activo 142 / 146 40% 3 20.12.2026 -
Che Adams Torino Activo 132 / 154 40% 2 16.12.2026 -
Murphy Cooper Plymouth Argyle Activo 106 / 111 40% 1 16.12.2026 -
János Uram Vasas Activo 99 / 95 40% 1 16.12.2026 -
Aune Heggebø West Bromwich Albion Activo 136 / 122 40% 2 14.12.2026 -
Tyrhys Dolan Espanyol Activo 141 / 136 40% 1 12.12.2026 -
Bobby Clark Derby County Activo 125 / 119 40% 1 12.12.2026 -
Kwadwo Duah Ludogorets Activo 122 / 121 40% 1 12.12.2026 -
Morgan Guilavogui Real Salt Lake Activo 124 / 128 40% 4 09.12.2026 -
Josh Keeley Luton Town Activo 123 / 116 40% 1 09.12.2026 -
Kyle Wootton Stockport County Activo 110 / 131 40% 1 07.12.2026 -
Sota Kitano Red Bull Salzburg Activo 123 / 138 40% 2 06.12.2026 -
Assad Al Hamlawi Universitatea Craiova Activo 116 / 109 40% 3 05.12.2026 -
Wessam Abou Ali Columbus Crew Activo 140 / 146 40% 3 30.11.2026 -
Elmin Rastoder Panathinaikos Activo 123 / 125 40% 2 30.11.2026 -
Petter Nosa Dahl Rapid Wien Activo 117 / 137 40% 1 30.11.2026 -
Ola Brynhildsen Rapid Wien Activo 117 / 143 40% 2 29.11.2026 -
Ondřej Lingr Korona Activo 126 / 128 40% 2 28.11.2026 -
Max Fenger Helsingborg Activo 116 / 111 40% 8 28.11.2026 -
Petar Musa FC Dallas Activo 129 / 148 40% 4 23.11.2026 -
Luka Jović CFR Cluj Activo 129 / 129 40% 4 19.11.2026 -
Michele Šego Hajduk Split Activo 123 / 120 40% 1 18.11.2026 -
Germán Berterame Inter Miami CF Activo 143 / 135 40% 1 15.11.2026 -
Kévin Denkey FC Cincinnati Activo 119 / 112 40% 3 14.11.2026 -
Alexey Miranchuk Atlanta United FC Activo 152 / 149 40% 1 14.11.2026 -
Erik Botheim Viking Activo 134 / 130 40% 1 14.11.2026 -
Tadeo Allende Inter Miami CF Activo 118 / 119 40% 1 13.11.2026 -
Brian White Vancouver Whitecaps Activo 125 / 109 40% 2 12.11.2026 -
Vegard Erlien Tromso Activo 132 / 122 40% 2 07.11.2026 -
Yorbe Vertessen Red Bull Salzburg Activo 124 / 143 40% 1 05.11.2026 -
Talles Magno New York City Activo 129 / 142 40% 6 02.11.2026 -
Jesus Ferreira Seattle Sounders Activo 121 / 118 40% 2 02.11.2026 -
Daniel Kyerewaa Reading Activo 115 / 106 40% 1 02.11.2026 -
Bénie Traoré New York City Activo 123 / 119 40% 1 29.10.2026 -
Paulos Abraham Hammarby Activo 127 / 119 40% 1 26.10.2026 Más información
Leonardo Campana New England Revolution Activo 120 / 116 40% 1 26.10.2026 -
Diego García Malmo FF Activo 112 / 124 40% 2 25.10.2026 -
Manfred Ugalde Spartak Moscow Activo 133 / 133 40% 1 25.10.2026 -
Alexander Aravena Portland Timbers Activo 118 / 121 40% 1 24.10.2026 -
Anderson Julio FC Dallas Activo 111 / 133 40% 1 19.10.2026 -
Mojmír Chytil Slavia Prague Activo 136 / 140 40% 2 18.10.2026 -
Matías Pellegrini Vélez Activo 129 / 104 40% 1 18.10.2026 -
Oswin Appollis Orlando Pirates Activo 131 / 109 40% 1 18.10.2026 -
João Klauss LA Galaxy Activo 135 / 112 40% 1 14.10.2026 -
Andrés Herrera Columbus Crew Activo 134 / 113 40% 1 14.10.2026 -
Cheikh Sabaly Vancouver Whitecaps Activo 117 / 137 40% 2 12.10.2026 -
Sead Hakšabanović Malmo FF Activo 126 / 108 40% 4 11.10.2026 -
Dejan Joveljić Seattle Sounders Activo 136 / 121 40% 2 11.10.2026 -
Martín Ojeda Orlando City Activo 132 / 119 40% 2 10.10.2026 -
Brandon Vázquez Austin FC Activo 122 / 130 40% 1 10.10.2026 -
Dániel Gazdag New England Revolution Activo 131 / 115 40% 1 07.10.2026 -
Telasco Segovia Inter Miami CF Activo 142 / 118 40% 1 06.10.2026 -
Warren Kamanzi Malmo FF Activo 124 / 130 40% 2 05.10.2026 -
Santiago Rodríguez Columbus Crew Activo 120 / 140 40% 2 05.10.2026 -
Ramiro Ruiz Rodríguez Atlético Tucumán Activo 116 / 114 40% 2 29.09.2026 -
Andreas Helmersen Bodo/Glimt Activo 125 / 112 40% 1 29.09.2026 -
David Kruse IFK Goteborg Activo 121 / 106 40% 1 29.09.2026 -
Esequiel Barco Spartak Moscow Activo 135 / 146 40% 1 28.09.2026 -
Indiana Vassilev Philadelphia Union Activo 111 / 111 40% 1 27.09.2026 -
Hannes Wolf New York City Activo 137 / 124 40% 1 27.09.2026 -
Facundo Mura Inter Miami CF Activo 113 / 141 40% 1 25.09.2026 -
Victor Lind Hammarby Activo 121 / 132 40% 1 25.09.2026 -
Marcelo Torres Gimnasia La Plata Activo 112 / 103 40% 1 23.09.2026 -
Alonso Martínez New York City Activo 109 / 111 40% 1 16.09.2026 -
Mariano Bracamonte Deportivo Riestra Activo 121 / 107 40% 1 16.09.2026 -
Duncan McGuire Houston Dynamo Activo 126 / 133 40% 2 12.09.2026 -
Nardin Mulahusejnović Vojvodina Activo 128 / 115 40% 1 12.09.2026 -
Gonzalo Carneiro Sparta Prague Activo 113 / 110 40% 1 10.09.2026 -
Ole Sæter Valerenga Activo 125 / 129 40% 1 07.09.2026 -
Juan Manuel Martínez Trejo Atvidaberg Activo 104 / 104 30% 1 / 1m 12.08.2026 -
Aboubacar Keita Kalmar FF Activo 105 / 101 69% 1 10.08.2026 Aprobar
Tomáš Souček West Ham United Activo 134 / 136 40% 1 01.08.2026 -